sensor_id;sensor_type;location;lat;lon;timestamp;P1;durP1;ratioP1;P2;durP2;ratioP2
48006;SDS011;33771;48.180;11.400;2023-07-30T00:00:41;2.67;;;1.77;;
48006;SDS011;33771;48.180;11.400;2023-07-30T00:03:07;6.88;;;1.90;;
48006;SDS011;33771;48.180;11.400;2023-07-30T00:05:33;3.85;;;1.73;;
48006;SDS011;33771;48.180;11.400;2023-07-30T00:07:58;4.15;;;1.80;;
48006;SDS011;33771;48.180;11.400;2023-07-30T00:10:24;3.67;;;1.90;;
48006;SDS011;33771;48.180;11.400;2023-07-30T00:12:49;2.95;;;1.80;;
48006;SDS011;33771;48.180;11.400;2023-07-30T00:15:15;2.05;;;1.55;;
48006;SDS011;33771;48.180;11.400;2023-07-30T00:17:40;4.32;;;2.15;;
48006;SDS011;33771;48.180;11.400;2023-07-30T00:20:07;7.63;;;1.90;;
48006;SDS011;33771;48.180;11.400;2023-07-30T00:22:33;3.35;;;2.08;;
48006;SDS011;33771;48.180;11.400;2023-07-30T00:24:58;4.47;;;1.80;;
48006;SDS011;33771;48.180;11.400;2023-07-30T00:27:24;2.28;;;1.80;;
48006;SDS011;33771;48.180;11.400;2023-07-30T00:29:49;2.53;;;2.00;;
48006;SDS011;33771;48.180;11.400;2023-07-30T00:32:15;3.03;;;1.90;;
48006;SDS011;33771;48.180;11.400;2023-07-30T00:34:42;2.53;;;1.77;;
48006;SDS011;33771;48.180;11.400;2023-07-30T00:37:09;2.92;;;2.08;;
48006;SDS011;33771;48.180;11.400;2023-07-30T00:39:34;2.63;;;1.70;;
48006;SDS011;33771;48.180;11.400;2023-07-30T00:42:00;3.05;;;1.90;;
48006;SDS011;33771;48.180;11.400;2023-07-30T00:44:25;2.72;;;2.10;;
48006;SDS011;33771;48.180;11.400;2023-07-30T00:46:51;2.88;;;1.85;;
48006;SDS011;33771;48.180;11.400;2023-07-30T00:49:17;3.47;;;1.80;;
48006;SDS011;33771;48.180;11.400;2023-07-30T00:51:43;2.42;;;1.88;;
48006;SDS011;33771;48.180;11.400;2023-07-30T00:54:10;2.15;;;1.70;;
48006;SDS011;33771;48.180;11.400;2023-07-30T00:56:36;4.97;;;2.28;;
48006;SDS011;33771;48.180;11.400;2023-07-30T00:59:02;2.70;;;1.70;;
48006;SDS011;33771;48.180;11.400;2023-07-30T01:01:27;4.47;;;2.08;;
48006;SDS011;33771;48.180;11.400;2023-07-30T01:03:55;3.45;;;1.80;;
48006;SDS011;33771;48.180;11.400;2023-07-30T01:06:21;4.15;;;1.90;;
48006;SDS011;33771;48.180;11.400;2023-07-30T01:08:47;6.78;;;1.90;;
48006;SDS011;33771;48.180;11.400;2023-07-30T01:11:13;2.25;;;1.70;;
48006;SDS011;33771;48.180;11.400;2023-07-30T01:13:40;2.42;;;1.80;;
48006;SDS011;33771;48.180;11.400;2023-07-30T01:16:06;3.00;;;1.80;;
48006;SDS011;33771;48.180;11.400;2023-07-30T01:18:32;5.05;;;1.95;;
48006;SDS011;33771;48.180;11.400;2023-07-30T01:20:58;5.43;;;2.20;;
48006;SDS011;33771;48.180;11.400;2023-07-30T01:23:25;2.40;;;1.77;;
48006;SDS011;33771;48.180;11.400;2023-07-30T01:25:58;5.85;;;1.95;;
48006;SDS011;33771;48.180;11.400;2023-07-30T01:28:29;2.60;;;1.63;;
48006;SDS011;33771;48.180;11.400;2023-07-30T01:31:01;3.28;;;2.10;;
48006;SDS011;33771;48.180;11.400;2023-07-30T01:33:29;5.05;;;2.10;;
48006;SDS011;33771;48.180;11.400;2023-07-30T01:35:55;5.38;;;1.90;;
48006;SDS011;33771;48.180;11.400;2023-07-30T01:38:22;2.75;;;1.83;;
48006;SDS011;33771;48.180;11.400;2023-07-30T01:40:48;3.00;;;1.70;;
48006;SDS011;33771;48.180;11.400;2023-07-30T01:43:14;3.42;;;2.00;;
48006;SDS011;33771;48.180;11.400;2023-07-30T01:45:39;2.88;;;1.90;;
48006;SDS011;33771;48.180;11.400;2023-07-30T01:48:06;3.67;;;1.90;;
48006;SDS011;33771;48.180;11.400;2023-07-30T01:50:31;3.35;;;2.30;;
48006;SDS011;33771;48.180;11.400;2023-07-30T01:52:57;4.43;;;2.13;;
48006;SDS011;33771;48.180;11.400;2023-07-30T01:55:22;5.75;;;2.03;;
48006;SDS011;33771;48.180;11.400;2023-07-30T01:57:48;4.40;;;2.08;;
48006;SDS011;33771;48.180;11.400;2023-07-30T02:00:13;3.15;;;2.28;;
48006;SDS011;33771;48.180;11.400;2023-07-30T02:02:39;3.10;;;2.10;;
48006;SDS011;33771;48.180;11.400;2023-07-30T02:05:04;3.13;;;2.00;;
48006;SDS011;33771;48.180;11.400;2023-07-30T02:07:30;4.70;;;3.05;;
48006;SDS011;33771;48.180;11.400;2023-07-30T02:09:56;2.30;;;1.90;;
48006;SDS011;33771;48.180;11.400;2023-07-30T02:12:21;5.75;;;2.10;;
48006;SDS011;33771;48.180;11.400;2023-07-30T02:14:47;3.50;;;2.25;;
48006;SDS011;33771;48.180;11.400;2023-07-30T02:17:12;3.03;;;2.13;;
48006;SDS011;33771;48.180;11.400;2023-07-30T02:19:38;5.50;;;2.10;;
48006;SDS011;33771;48.180;11.400;2023-07-30T02:22:04;4.57;;;2.03;;
48006;SDS011;33771;48.180;11.400;2023-07-30T02:24:29;3.70;;;2.10;;
48006;SDS011;33771;48.180;11.400;2023-07-30T02:26:55;5.45;;;2.70;;
48006;SDS011;33771;48.180;11.400;2023-07-30T02:29:20;6.03;;;2.90;;
48006;SDS011;33771;48.180;11.400;2023-07-30T02:31:46;5.00;;;2.25;;
48006;SDS011;33771;48.180;11.400;2023-07-30T02:34:11;4.97;;;2.45;;
48006;SDS011;33771;48.180;11.400;2023-07-30T02:36:37;3.65;;;2.35;;
48006;SDS011;33771;48.180;11.400;2023-07-30T02:39:02;2.72;;;2.10;;
48006;SDS011;33771;48.180;11.400;2023-07-30T02:41:28;2.80;;;2.20;;
48006;SDS011;33771;48.180;11.400;2023-07-30T02:43:54;3.53;;;2.65;;
48006;SDS011;33771;48.180;11.400;2023-07-30T02:46:19;3.50;;;2.15;;
48006;SDS011;33771;48.180;11.400;2023-07-30T02:48:45;3.03;;;2.40;;
48006;SDS011;33771;48.180;11.400;2023-07-30T02:51:10;3.28;;;2.30;;
48006;SDS011;33771;48.180;11.400;2023-07-30T02:53:36;3.42;;;2.28;;
48006;SDS011;33771;48.180;11.400;2023-07-30T02:56:01;3.28;;;2.42;;
48006;SDS011;33771;48.180;11.400;2023-07-30T02:58:27;4.20;;;2.38;;
48006;SDS011;33771;48.180;11.400;2023-07-30T03:00:52;3.47;;;2.42;;
48006;SDS011;33771;48.180;11.400;2023-07-30T03:03:18;6.70;;;2.72;;
48006;SDS011;33771;48.180;11.400;2023-07-30T03:05:43;3.45;;;2.50;;
48006;SDS011;33771;48.180;11.400;2023-07-30T03:08:09;4.03;;;2.40;;
48006;SDS011;33771;48.180;11.400;2023-07-30T03:10:36;5.43;;;2.53;;
48006;SDS011;33771;48.180;11.400;2023-07-30T03:13:02;10.20;;;2.60;;
48006;SDS011;33771;48.180;11.400;2023-07-30T03:15:27;3.10;;;2.40;;
48006;SDS011;33771;48.180;11.400;2023-07-30T03:17:53;6.55;;;2.70;;
48006;SDS011;33771;48.180;11.400;2023-07-30T03:20:18;5.40;;;3.00;;
48006;SDS011;33771;48.180;11.400;2023-07-30T03:22:44;6.70;;;3.05;;
48006;SDS011;33771;48.180;11.400;2023-07-30T03:25:09;3.92;;;2.67;;
48006;SDS011;33771;48.180;11.400;2023-07-30T03:27:35;4.15;;;2.70;;
48006;SDS011;33771;48.180;11.400;2023-07-30T03:30:00;3.22;;;2.85;;
48006;SDS011;33771;48.180;11.400;2023-07-30T03:32:26;5.80;;;2.58;;
48006;SDS011;33771;48.180;11.400;2023-07-30T03:34:51;4.65;;;3.03;;
48006;SDS011;33771;48.180;11.400;2023-07-30T03:37:17;5.65;;;2.67;;
48006;SDS011;33771;48.180;11.400;2023-07-30T03:39:43;3.47;;;2.50;;
48006;SDS011;33771;48.180;11.400;2023-07-30T03:42:08;3.55;;;2.80;;
48006;SDS011;33771;48.180;11.400;2023-07-30T03:44:34;5.13;;;3.25;;
48006;SDS011;33771;48.180;11.400;2023-07-30T03:46:59;5.35;;;3.00;;
48006;SDS011;33771;48.180;11.400;2023-07-30T03:49:25;3.75;;;2.78;;
48006;SDS011;33771;48.180;11.400;2023-07-30T03:51:50;4.53;;;3.22;;
48006;SDS011;33771;48.180;11.400;2023-07-30T03:54:16;3.47;;;2.50;;
48006;SDS011;33771;48.180;11.400;2023-07-30T03:56:41;6.38;;;3.08;;
48006;SDS011;33771;48.180;11.400;2023-07-30T03:59:07;4.07;;;2.90;;
48006;SDS011;33771;48.180;11.400;2023-07-30T04:01:32;4.82;;;3.40;;
48006;SDS011;33771;48.180;11.400;2023-07-30T04:03:58;4.57;;;3.45;;
48006;SDS011;33771;48.180;11.400;2023-07-30T04:06:24;6.90;;;3.40;;
48006;SDS011;33771;48.180;11.400;2023-07-30T04:08:50;5.93;;;3.50;;
48006;SDS011;33771;48.180;11.400;2023-07-30T04:11:15;6.45;;;3.22;;
48006;SDS011;33771;48.180;11.400;2023-07-30T04:13:41;4.05;;;2.70;;
48006;SDS011;33771;48.180;11.400;2023-07-30T04:16:07;4.55;;;2.80;;
48006;SDS011;33771;48.180;11.400;2023-07-30T04:18:33;4.40;;;2.60;;
48006;SDS011;33771;48.180;11.400;2023-07-30T04:20:59;5.32;;;3.10;;
48006;SDS011;33771;48.180;11.400;2023-07-30T04:23:24;3.75;;;2.47;;
48006;SDS011;33771;48.180;11.400;2023-07-30T04:25:50;3.40;;;2.70;;
48006;SDS011;33771;48.180;11.400;2023-07-30T04:28:16;3.67;;;2.47;;
48006;SDS011;33771;48.180;11.400;2023-07-30T04:30:41;5.65;;;2.97;;
48006;SDS011;33771;48.180;11.400;2023-07-30T04:33:07;5.72;;;2.53;;
48006;SDS011;33771;48.180;11.400;2023-07-30T04:35:33;6.47;;;2.70;;
48006;SDS011;33771;48.180;11.400;2023-07-30T04:37:58;3.53;;;2.67;;
48006;SDS011;33771;48.180;11.400;2023-07-30T04:40:24;3.50;;;2.33;;
48006;SDS011;33771;48.180;11.400;2023-07-30T04:42:49;5.25;;;2.60;;
48006;SDS011;33771;48.180;11.400;2023-07-30T04:45:15;5.90;;;2.60;;
48006;SDS011;33771;48.180;11.400;2023-07-30T04:47:40;3.70;;;2.28;;
48006;SDS011;33771;48.180;11.400;2023-07-30T04:50:06;4.45;;;2.35;;
48006;SDS011;33771;48.180;11.400;2023-07-30T04:52:32;4.15;;;2.38;;
48006;SDS011;33771;48.180;11.400;2023-07-30T04:54:57;4.53;;;2.40;;
48006;SDS011;33771;48.180;11.400;2023-07-30T04:57:23;5.18;;;2.50;;
48006;SDS011;33771;48.180;11.400;2023-07-30T04:59:48;4.15;;;2.40;;
48006;SDS011;33771;48.180;11.400;2023-07-30T05:02:14;4.45;;;2.30;;
48006;SDS011;33771;48.180;11.400;2023-07-30T05:04:39;7.70;;;2.60;;
48006;SDS011;33771;48.180;11.400;2023-07-30T05:07:05;3.25;;;2.50;;
48006;SDS011;33771;48.180;11.400;2023-07-30T05:09:31;3.47;;;2.25;;
48006;SDS011;33771;48.180;11.400;2023-07-30T05:11:56;4.10;;;2.47;;
48006;SDS011;33771;48.180;11.400;2023-07-30T05:14:22;3.80;;;2.28;;
48006;SDS011;33771;48.180;11.400;2023-07-30T05:16:47;3.55;;;2.25;;
48006;SDS011;33771;48.180;11.400;2023-07-30T05:19:13;5.47;;;2.50;;
48006;SDS011;33771;48.180;11.400;2023-07-30T05:21:39;3.58;;;2.40;;
48006;SDS011;33771;48.180;11.400;2023-07-30T05:24:04;3.45;;;2.10;;
48006;SDS011;33771;48.180;11.400;2023-07-30T05:26:30;3.25;;;2.38;;
48006;SDS011;33771;48.180;11.400;2023-07-30T05:28:55;4.90;;;2.50;;
48006;SDS011;33771;48.180;11.400;2023-07-30T05:31:21;3.28;;;2.40;;
48006;SDS011;33771;48.180;11.400;2023-07-30T05:33:46;3.33;;;2.42;;
48006;SDS011;33771;48.180;11.400;2023-07-30T05:36:12;2.92;;;2.45;;
48006;SDS011;33771;48.180;11.400;2023-07-30T05:38:37;4.65;;;2.50;;
48006;SDS011;33771;48.180;11.400;2023-07-30T05:41:03;3.22;;;2.38;;
48006;SDS011;33771;48.180;11.400;2023-07-30T05:43:28;3.33;;;2.47;;
48006;SDS011;33771;48.180;11.400;2023-07-30T05:45:54;5.28;;;2.50;;
48006;SDS011;33771;48.180;11.400;2023-07-30T05:48:19;3.00;;;2.30;;
48006;SDS011;33771;48.180;11.400;2023-07-30T05:50:45;2.90;;;2.25;;
48006;SDS011;33771;48.180;11.400;2023-07-30T05:53:10;4.22;;;2.10;;
48006;SDS011;33771;48.180;11.400;2023-07-30T05:55:36;2.80;;;1.83;;
48006;SDS011;33771;48.180;11.400;2023-07-30T05:58:01;4.82;;;2.65;;
48006;SDS011;33771;48.180;11.400;2023-07-30T06:00:27;3.80;;;2.53;;
48006;SDS011;33771;48.180;11.400;2023-07-30T06:02:52;3.70;;;2.20;;
48006;SDS011;33771;48.180;11.400;2023-07-30T06:05:18;2.85;;;2.03;;
48006;SDS011;33771;48.180;11.400;2023-07-30T06:07:43;4.28;;;2.17;;
48006;SDS011;33771;48.180;11.400;2023-07-30T06:10:10;3.97;;;2.20;;
48006;SDS011;33771;48.180;11.400;2023-07-30T06:12:35;5.55;;;2.10;;
48006;SDS011;33771;48.180;11.400;2023-07-30T06:15:01;3.55;;;2.25;;
48006;SDS011;33771;48.180;11.400;2023-07-30T06:17:27;6.18;;;2.35;;
48006;SDS011;33771;48.180;11.400;2023-07-30T06:19:52;4.88;;;2.00;;
48006;SDS011;33771;48.180;11.400;2023-07-30T06:22:18;3.03;;;2.20;;
48006;SDS011;33771;48.180;11.400;2023-07-30T06:24:43;3.13;;;2.28;;
48006;SDS011;33771;48.180;11.400;2023-07-30T06:27:09;3.08;;;2.22;;
48006;SDS011;33771;48.180;11.400;2023-07-30T06:29:35;5.45;;;2.15;;
48006;SDS011;33771;48.180;11.400;2023-07-30T06:32:01;3.05;;;2.22;;
48006;SDS011;33771;48.180;11.400;2023-07-30T06:34:26;8.35;;;1.98;;
48006;SDS011;33771;48.180;11.400;2023-07-30T06:36:52;3.65;;;2.33;;
48006;SDS011;33771;48.180;11.400;2023-07-30T06:39:17;3.60;;;1.90;;
48006;SDS011;33771;48.180;11.400;2023-07-30T06:41:43;5.57;;;1.92;;
48006;SDS011;33771;48.180;11.400;2023-07-30T06:44:08;3.65;;;2.30;;
48006;SDS011;33771;48.180;11.400;2023-07-30T06:46:34;5.97;;;2.00;;
48006;SDS011;33771;48.180;11.400;2023-07-30T06:48:59;2.13;;;1.70;;
48006;SDS011;33771;48.180;11.400;2023-07-30T06:51:25;4.05;;;2.00;;
48006;SDS011;33771;48.180;11.400;2023-07-30T06:53:51;4.95;;;2.00;;
48006;SDS011;33771;48.180;11.400;2023-07-30T06:56:17;3.53;;;1.75;;
48006;SDS011;33771;48.180;11.400;2023-07-30T06:58:43;2.60;;;1.85;;
48006;SDS011;33771;48.180;11.400;2023-07-30T07:01:08;4.03;;;2.20;;
48006;SDS011;33771;48.180;11.400;2023-07-30T07:03:34;4.88;;;2.00;;
48006;SDS011;33771;48.180;11.400;2023-07-30T07:05:59;3.15;;;1.90;;
48006;SDS011;33771;48.180;11.400;2023-07-30T07:08:25;6.72;;;1.90;;
48006;SDS011;33771;48.180;11.400;2023-07-30T07:10:52;7.20;;;1.92;;
48006;SDS011;33771;48.180;11.400;2023-07-30T07:13:17;3.42;;;2.00;;
48006;SDS011;33771;48.180;11.400;2023-07-30T07:15:43;5.03;;;1.90;;
48006;SDS011;33771;48.180;11.400;2023-07-30T07:18:09;2.85;;;1.83;;
48006;SDS011;33771;48.180;11.400;2023-07-30T07:20:36;5.95;;;2.08;;
48006;SDS011;33771;48.180;11.400;2023-07-30T07:23:02;4.70;;;2.25;;
48006;SDS011;33771;48.180;11.400;2023-07-30T07:25:28;2.60;;;1.90;;
48006;SDS011;33771;48.180;11.400;2023-07-30T07:27:54;4.65;;;2.13;;
48006;SDS011;33771;48.180;11.400;2023-07-30T07:30:19;4.43;;;1.98;;
48006;SDS011;33771;48.180;11.400;2023-07-30T07:32:45;4.10;;;1.90;;
48006;SDS011;33771;48.180;11.400;2023-07-30T07:35:15;3.45;;;1.70;;
48006;SDS011;33771;48.180;11.400;2023-07-30T07:37:40;2.83;;;1.70;;
48006;SDS011;33771;48.180;11.400;2023-07-30T07:40:06;2.63;;;1.88;;
48006;SDS011;33771;48.180;11.400;2023-07-30T07:42:34;2.92;;;1.75;;
48006;SDS011;33771;48.180;11.400;2023-07-30T07:45:00;3.55;;;1.70;;
48006;SDS011;33771;48.180;11.400;2023-07-30T07:47:25;4.28;;;2.17;;
48006;SDS011;33771;48.180;11.400;2023-07-30T07:49:51;3.03;;;1.80;;
48006;SDS011;33771;48.180;11.400;2023-07-30T07:52:16;3.53;;;1.80;;
48006;SDS011;33771;48.180;11.400;2023-07-30T07:54:42;2.60;;;2.10;;
48006;SDS011;33771;48.180;11.400;2023-07-30T07:57:08;4.78;;;1.98;;
48006;SDS011;33771;48.180;11.400;2023-07-30T07:59:33;3.70;;;2.25;;
48006;SDS011;33771;48.180;11.400;2023-07-30T08:01:59;2.03;;;1.65;;
48006;SDS011;33771;48.180;11.400;2023-07-30T08:04:25;4.20;;;1.80;;
48006;SDS011;33771;48.180;11.400;2023-07-30T08:06:50;2.22;;;1.60;;
48006;SDS011;33771;48.180;11.400;2023-07-30T08:09:16;2.33;;;1.80;;
48006;SDS011;33771;48.180;11.400;2023-07-30T08:11:41;4.25;;;1.67;;
48006;SDS011;33771;48.180;11.400;2023-07-30T08:14:07;11.02;;;2.40;;
48006;SDS011;33771;48.180;11.400;2023-07-30T08:16:32;4.38;;;1.85;;
48006;SDS011;33771;48.180;11.400;2023-07-30T08:18:58;2.90;;;1.92;;
48006;SDS011;33771;48.180;11.400;2023-07-30T08:21:23;2.72;;;2.08;;
48006;SDS011;33771;48.180;11.400;2023-07-30T08:23:49;4.28;;;1.67;;
48006;SDS011;33771;48.180;11.400;2023-07-30T08:26:14;2.92;;;2.00;;
48006;SDS011;33771;48.180;11.400;2023-07-30T08:28:40;2.50;;;1.73;;
48006;SDS011;33771;48.180;11.400;2023-07-30T08:31:05;1.95;;;1.60;;
48006;SDS011;33771;48.180;11.400;2023-07-30T08:33:31;6.32;;;3.00;;
48006;SDS011;33771;48.180;11.400;2023-07-30T08:35:57;3.15;;;1.60;;
48006;SDS011;33771;48.180;11.400;2023-07-30T08:38:23;3.47;;;1.90;;
48006;SDS011;33771;48.180;11.400;2023-07-30T08:40:49;2.38;;;1.85;;
48006;SDS011;33771;48.180;11.400;2023-07-30T08:43:15;3.90;;;1.80;;
48006;SDS011;33771;48.180;11.400;2023-07-30T08:45:41;2.28;;;1.50;;
48006;SDS011;33771;48.180;11.400;2023-07-30T08:48:07;3.40;;;1.90;;
48006;SDS011;33771;48.180;11.400;2023-07-30T08:50:32;4.75;;;2.30;;
48006;SDS011;33771;48.180;11.400;2023-07-30T08:52:59;3.72;;;1.77;;
48006;SDS011;33771;48.180;11.400;2023-07-30T08:55:27;2.50;;;1.67;;
48006;SDS011;33771;48.180;11.400;2023-07-30T08:57:54;2.60;;;1.60;;
48006;SDS011;33771;48.180;11.400;2023-07-30T09:00:21;5.00;;;2.13;;
48006;SDS011;33771;48.180;11.400;2023-07-30T09:02:51;2.70;;;1.88;;
48006;SDS011;33771;48.180;11.400;2023-07-30T09:05:19;4.75;;;1.80;;
48006;SDS011;33771;48.180;11.400;2023-07-30T09:07:45;2.28;;;1.65;;
48006;SDS011;33771;48.180;11.400;2023-07-30T09:10:11;3.03;;;1.90;;
48006;SDS011;33771;48.180;11.400;2023-07-30T09:12:37;2.58;;;1.60;;
48006;SDS011;33771;48.180;11.400;2023-07-30T09:15:03;3.03;;;1.75;;
48006;SDS011;33771;48.180;11.400;2023-07-30T09:17:30;3.38;;;2.00;;
48006;SDS011;33771;48.180;11.400;2023-07-30T09:19:55;2.22;;;1.88;;
48006;SDS011;33771;48.180;11.400;2023-07-30T09:22:27;2.85;;;1.80;;
48006;SDS011;33771;48.180;11.400;2023-07-30T09:24:54;5.10;;;1.60;;
48006;SDS011;33771;48.180;11.400;2023-07-30T09:27:21;2.95;;;1.83;;
48006;SDS011;33771;48.180;11.400;2023-07-30T09:30:01;2.42;;;1.80;;
48006;SDS011;33771;48.180;11.400;2023-07-30T09:32:31;2.92;;;2.00;;
48006;SDS011;33771;48.180;11.400;2023-07-30T09:35:04;2.08;;;1.60;;
48006;SDS011;33771;48.180;11.400;2023-07-30T09:37:31;2.45;;;1.58;;
48006;SDS011;33771;48.180;11.400;2023-07-30T09:40:00;3.08;;;1.85;;
48006;SDS011;33771;48.180;11.400;2023-07-30T09:42:27;3.55;;;1.50;;
48006;SDS011;33771;48.180;11.400;2023-07-30T09:44:53;3.42;;;1.80;;
48006;SDS011;33771;48.180;11.400;2023-07-30T09:47:18;3.30;;;1.70;;
48006;SDS011;33771;48.180;11.400;2023-07-30T09:49:44;2.45;;;1.60;;
48006;SDS011;33771;48.180;11.400;2023-07-30T09:52:09;2.20;;;1.67;;
48006;SDS011;33771;48.180;11.400;2023-07-30T09:54:36;3.63;;;1.60;;
48006;SDS011;33771;48.180;11.400;2023-07-30T09:57:04;2.33;;;1.55;;
48006;SDS011;33771;48.180;11.400;2023-07-30T09:59:30;2.22;;;1.50;;
48006;SDS011;33771;48.180;11.400;2023-07-30T10:01:56;2.30;;;1.58;;
48006;SDS011;33771;48.180;11.400;2023-07-30T10:04:23;4.57;;;1.80;;
48006;SDS011;33771;48.180;11.400;2023-07-30T10:09:19;2.55;;;1.50;;
48006;SDS011;33771;48.180;11.400;2023-07-30T10:11:46;2.20;;;1.50;;
48006;SDS011;33771;48.180;11.400;2023-07-30T10:14:15;2.28;;;1.70;;
48006;SDS011;33771;48.180;11.400;2023-07-30T10:16:50;1.80;;;1.50;;
48006;SDS011;33771;48.180;11.400;2023-07-30T10:19:22;2.35;;;1.75;;
48006;SDS011;33771;48.180;11.400;2023-07-30T10:21:48;2.70;;;1.55;;
48006;SDS011;33771;48.180;11.400;2023-07-30T10:24:14;2.55;;;1.50;;
48006;SDS011;33771;48.180;11.400;2023-07-30T10:26:39;2.90;;;1.55;;
48006;SDS011;33771;48.180;11.400;2023-07-30T10:29:11;3.08;;;1.40;;
48006;SDS011;33771;48.180;11.400;2023-07-30T10:31:38;2.22;;;1.60;;
48006;SDS011;33771;48.180;11.400;2023-07-30T10:34:09;3.35;;;1.60;;
48006;SDS011;33771;48.180;11.400;2023-07-30T10:36:42;3.17;;;1.92;;
48006;SDS011;33771;48.180;11.400;2023-07-30T10:39:13;3.15;;;1.92;;
48006;SDS011;33771;48.180;11.400;2023-07-30T10:41:42;3.42;;;1.73;;
48006;SDS011;33771;48.180;11.400;2023-07-30T10:44:16;2.15;;;1.20;;
48006;SDS011;33771;48.180;11.400;2023-07-30T10:46:43;5.10;;;1.65;;
48006;SDS011;33771;48.180;11.400;2023-07-30T10:49:09;2.40;;;1.70;;
48006;SDS011;33771;48.180;11.400;2023-07-30T10:51:37;2.00;;;1.60;;
48006;SDS011;33771;48.180;11.400;2023-07-30T10:54:05;2.53;;;1.67;;
48006;SDS011;33771;48.180;11.400;2023-07-30T10:56:32;2.25;;;1.50;;
48006;SDS011;33771;48.180;11.400;2023-07-30T10:59:02;2.70;;;1.60;;
48006;SDS011;33771;48.180;11.400;2023-07-30T11:01:30;4.00;;;1.75;;
48006;SDS011;33771;48.180;11.400;2023-07-30T11:03:55;2.85;;;1.42;;
48006;SDS011;33771;48.180;11.400;2023-07-30T11:06:25;3.67;;;1.60;;
48006;SDS011;33771;48.180;11.400;2023-07-30T11:08:51;2.80;;;1.50;;
48006;SDS011;33771;48.180;11.400;2023-07-30T11:11:17;10.75;;;1.88;;
48006;SDS011;33771;48.180;11.400;2023-07-30T11:13:43;2.03;;;1.50;;
48006;SDS011;33771;48.180;11.400;2023-07-30T11:16:11;4.03;;;1.80;;
48006;SDS011;33771;48.180;11.400;2023-07-30T11:18:38;1.45;;;1.25;;
48006;SDS011;33771;48.180;11.400;2023-07-30T11:21:08;2.05;;;1.33;;
48006;SDS011;33771;48.180;11.400;2023-07-30T11:23:35;2.08;;;1.30;;
48006;SDS011;33771;48.180;11.400;2023-07-30T11:26:03;2.50;;;1.40;;
48006;SDS011;33771;48.180;11.400;2023-07-30T11:28:31;2.30;;;1.20;;
48006;SDS011;33771;48.180;11.400;2023-07-30T11:31:02;2.00;;;1.50;;
48006;SDS011;33771;48.180;11.400;2023-07-30T11:33:28;4.38;;;1.70;;
48006;SDS011;33771;48.180;11.400;2023-07-30T11:35:55;6.30;;;1.60;;
48006;SDS011;33771;48.180;11.400;2023-07-30T11:38:22;4.75;;;1.83;;
48006;SDS011;33771;48.180;11.400;2023-07-30T11:40:49;2.55;;;1.50;;
48006;SDS011;33771;48.180;11.400;2023-07-30T11:43:16;2.42;;;1.60;;
48006;SDS011;33771;48.180;11.400;2023-07-30T11:45:42;4.10;;;1.48;;
48006;SDS011;33771;48.180;11.400;2023-07-30T11:48:08;2.20;;;1.48;;
48006;SDS011;33771;48.180;11.400;2023-07-30T11:50:47;3.78;;;2.00;;
48006;SDS011;33771;48.180;11.400;2023-07-30T11:53:15;2.50;;;1.80;;
48006;SDS011;33771;48.180;11.400;2023-07-30T11:55:41;2.42;;;1.50;;
48006;SDS011;33771;48.180;11.400;2023-07-30T11:58:08;2.67;;;1.58;;
48006;SDS011;33771;48.180;11.400;2023-07-30T12:00:35;3.72;;;1.73;;
48006;SDS011;33771;48.180;11.400;2023-07-30T12:03:03;2.40;;;1.60;;
48006;SDS011;33771;48.180;11.400;2023-07-30T12:05:33;2.95;;;1.88;;
48006;SDS011;33771;48.180;11.400;2023-07-30T12:08:03;2.35;;;1.50;;
48006;SDS011;33771;48.180;11.400;2023-07-30T12:10:47;4.05;;;1.70;;
48006;SDS011;33771;48.180;11.400;2023-07-30T12:13:17;2.92;;;1.83;;
48006;SDS011;33771;48.180;11.400;2023-07-30T12:15:50;3.35;;;1.58;;
48006;SDS011;33771;48.180;11.400;2023-07-30T12:18:16;4.85;;;1.85;;
48006;SDS011;33771;48.180;11.400;2023-07-30T12:20:41;3.78;;;1.70;;
48006;SDS011;33771;48.180;11.400;2023-07-30T12:23:07;3.25;;;1.70;;
48006;SDS011;33771;48.180;11.400;2023-07-30T12:25:33;3.80;;;1.70;;
48006;SDS011;33771;48.180;11.400;2023-07-30T12:27:59;2.08;;;1.60;;
48006;SDS011;33771;48.180;11.400;2023-07-30T12:30:25;2.30;;;1.80;;
48006;SDS011;33771;48.180;11.400;2023-07-30T12:32:51;2.33;;;1.70;;
48006;SDS011;33771;48.180;11.400;2023-07-30T12:35:17;5.05;;;1.77;;
48006;SDS011;33771;48.180;11.400;2023-07-30T12:37:42;2.65;;;1.65;;
48006;SDS011;33771;48.180;11.400;2023-07-30T12:40:08;2.63;;;1.80;;
48006;SDS011;33771;48.180;11.400;2023-07-30T12:42:34;3.97;;;1.60;;
48006;SDS011;33771;48.180;11.400;2023-07-30T12:44:59;4.82;;;1.95;;
48006;SDS011;33771;48.180;11.400;2023-07-30T12:47:25;3.45;;;1.50;;
48006;SDS011;33771;48.180;11.400;2023-07-30T12:49:50;2.63;;;1.80;;
48006;SDS011;33771;48.180;11.400;2023-07-30T12:52:16;2.10;;;1.60;;
48006;SDS011;33771;48.180;11.400;2023-07-30T12:54:41;2.22;;;1.67;;
48006;SDS011;33771;48.180;11.400;2023-07-30T12:57:07;2.95;;;2.03;;
48006;SDS011;33771;48.180;11.400;2023-07-30T12:59:32;2.08;;;1.33;;
48006;SDS011;33771;48.180;11.400;2023-07-30T13:01:58;2.30;;;1.70;;
48006;SDS011;33771;48.180;11.400;2023-07-30T13:04:24;2.40;;;1.50;;
48006;SDS011;33771;48.180;11.400;2023-07-30T13:06:52;2.72;;;1.60;;
48006;SDS011;33771;48.180;11.400;2023-07-30T13:09:20;4.00;;;1.88;;
48006;SDS011;33771;48.180;11.400;2023-07-30T13:11:46;2.22;;;1.60;;
48006;SDS011;33771;48.180;11.400;2023-07-30T13:14:12;5.35;;;2.08;;
48006;SDS011;33771;48.180;11.400;2023-07-30T13:16:38;4.30;;;1.65;;
48006;SDS011;33771;48.180;11.400;2023-07-30T13:19:03;2.05;;;1.50;;
48006;SDS011;33771;48.180;11.400;2023-07-30T13:21:29;2.97;;;1.70;;
48006;SDS011;33771;48.180;11.400;2023-07-30T13:23:54;3.35;;;1.98;;
48006;SDS011;33771;48.180;11.400;2023-07-30T13:26:20;3.35;;;2.00;;
48006;SDS011;33771;48.180;11.400;2023-07-30T13:28:45;7.55;;;2.00;;
48006;SDS011;33771;48.180;11.400;2023-07-30T13:31:11;9.30;;;2.25;;
48006;SDS011;33771;48.180;11.400;2023-07-30T13:33:36;6.13;;;2.20;;
48006;SDS011;33771;48.180;11.400;2023-07-30T13:36:02;6.95;;;2.63;;
48006;SDS011;33771;48.180;11.400;2023-07-30T13:38:28;4.50;;;2.45;;
48006;SDS011;33771;48.180;11.400;2023-07-30T13:40:54;4.40;;;2.50;;
48006;SDS011;33771;48.180;11.400;2023-07-30T13:43:20;3.03;;;1.95;;
48006;SDS011;33771;48.180;11.400;2023-07-30T13:45:45;3.42;;;2.00;;
48006;SDS011;33771;48.180;11.400;2023-07-30T13:48:15;5.55;;;2.38;;
48006;SDS011;33771;48.180;11.400;2023-07-30T13:50:41;3.53;;;2.25;;
48006;SDS011;33771;48.180;11.400;2023-07-30T13:53:06;3.65;;;2.20;;
48006;SDS011;33771;48.180;11.400;2023-07-30T13:55:32;5.25;;;2.08;;
48006;SDS011;33771;48.180;11.400;2023-07-30T13:57:57;3.15;;;2.13;;
48006;SDS011;33771;48.180;11.400;2023-07-30T14:00:23;3.95;;;2.28;;
48006;SDS011;33771;48.180;11.400;2023-07-30T14:02:49;3.20;;;2.00;;
48006;SDS011;33771;48.180;11.400;2023-07-30T14:05:15;3.88;;;2.13;;
48006;SDS011;33771;48.180;11.400;2023-07-30T14:07:41;3.65;;;1.90;;
48006;SDS011;33771;48.180;11.400;2023-07-30T14:10:07;3.78;;;1.80;;
48006;SDS011;33771;48.180;11.400;2023-07-30T14:12:34;3.40;;;2.08;;
48006;SDS011;33771;48.180;11.400;2023-07-30T14:14:59;3.97;;;2.05;;
48006;SDS011;33771;48.180;11.400;2023-07-30T14:17:25;2.75;;;1.90;;
48006;SDS011;33771;48.180;11.400;2023-07-30T14:19:50;2.50;;;1.90;;
48006;SDS011;33771;48.180;11.400;2023-07-30T14:22:16;2.97;;;1.80;;
48006;SDS011;33771;48.180;11.400;2023-07-30T14:24:41;2.22;;;1.80;;
48006;SDS011;33771;48.180;11.400;2023-07-30T14:27:08;2.50;;;1.55;;
48006;SDS011;33771;48.180;11.400;2023-07-30T14:29:34;9.82;;;2.25;;